Flight Track Log - Related Links

Times and Time Zones

All times are in EDT time to prevent confusion due to time zone crossing. See the FDX1374 flight status page for this flight to view local times or setup timezone preferences in your user account.

Time Position Orientation Groundspeed Altitude Reporting Facility
EDT Latitude Longitude Course Direction KTS MPH feet Rate Location/Type
Thu 11:58:44 PM 39.8175 -82.9217 360° North 165 190 1,600  Level Indianapolis Center
Thu 11:58:44 PM 39.8175 -82.9217 51° Northeast 165 190 1,600 3,333 Level Indianapolis Center
Thu 11:59:02 PM 39.8269 -82.9064 51° Northeast 170 196 2,600 3,333 Climbing Indianapolis Center
Thu 11:59:02 PM 39.8269 -82.9064 51° Northeast 170 196 2,600 1,756 Level Indianapolis Center
Thu 11:59:43 PM 39.8339 -82.8586 79° East 207 238 3,800 2,353 Climbing Indianapolis Center
Fri 12:00:44 AM 39.7769 -82.8039 144° Southeast 281 323 6,600 2,927 Climbing Indianapolis Center
Fri 12:01:46 AM 39.7239 -82.8736 225° Southwest 274 315 9,800 2,195 Climbing Indianapolis Center
Fri 12:02:47 AM 39.6764 -82.9519 232° Southwest 274 315 11,100 2,431 Climbing Indianapolis Center
Fri 12:08:48 AM 39.2150 -83.5650 232° Southwest 439 505 26,900 2,544 Climbing FlightAware
Fri 12:09:28 AM 39.1560 -83.6430 226° Southwest 447 514 28,100 2,047 Climbing FlightAware
Fri 12:10:13 AM 39.0910 -83.7280 225° Southwest 444 511 29,800 1,412 Climbing FlightAware
Fri 12:10:53 AM 39.0330 -83.8060 226° Southwest 443 510 30,100 240 Climbing FlightAware
Fri 12:11:28 AM 38.9880 -83.8640 225° Southwest 443 510 30,100 424 Level FlightAware
Fri 12:12:18 AM 38.9170 -83.9570 226° Southwest 442 509 30,700 400 Climbing FlightAware
Fri 12:12:58 AM 38.8680 -84.0200 225° Southwest 442 509 30,700 2,175 Level FlightAware
Fri 12:13:38 AM 38.8000 -84.1070 225° Southwest 441 507 33,600 2,175 Climbing FlightAware
Fri 12:14:18 AM 38.7510 -84.1700 225° Southwest 441 507 33,600  Level FlightAware
Fri 12:15:08 AM 38.6900 -84.2490 225° Southwest 441 507 33,600  Level FlightAware
Fri 12:15:48 AM 38.6400 -84.3120 225° Southwest 441 507 33,600  Level FlightAware
Fri 12:16:28 AM 38.5910 -84.3740 225° Southwest 441 507 33,600 400 Level FlightAware
Fri 12:17:03 AM 38.5090 -84.4830 226° Southwest 433 498 34,100 282 Climbing FlightAware
Fri 12:17:53 AM 38.4410 -84.5700 225° Southwest 434 499 34,000 -63 Descending FlightAware
Fri 12:18:38 AM 38.3710 -84.6590 225° Southwest 435 501 34,000  Level FlightAware
Fri 12:19:18 AM 38.3170 -84.7280 225° Southwest 437 503 34,000  Level FlightAware
Fri 12:20:03 AM 38.2500 -84.8130 225° Southwest 439 505 34,000  Level FlightAware
Fri 12:20:43 AM 38.1930 -84.8850 225° Southwest 440 506 34,000  Level FlightAware
Fri 12:21:23 AM 38.1350 -84.9580 225° Southwest 441 507 34,000  Level FlightAware
Fri 12:22:08 AM 38.0680 -85.0420 225° Southwest 442 509 34,000  Level FlightAware
Fri 12:22:48 AM 38.0100 -85.1150 225° Southwest 442 509 34,000  Level FlightAware
Fri 12:23:33 AM 37.9460 -85.1970 225° Southwest 441 507 34,000 71 Level FlightAware
Fri 12:24:13 AM 37.8870 -85.2700 224° Southwest 441 507 34,100  Climbing FlightAware
Fri 12:24:53 AM 37.8300 -85.3400 224° Southwest 439 505 34,000 -71 Descending FlightAware
Fri 12:25:38 AM 37.7630 -85.4230 224° Southwest 439 505 34,000  Level FlightAware
Fri 12:26:18 AM 37.7040 -85.4970 225° Southwest 440 506 34,000  Level FlightAware
Fri 12:27:03 AM 37.6400 -85.5760 224° Southwest 441 507 34,000  Level FlightAware
Fri 12:27:43 AM 37.5820 -85.6470 224° Southwest 441 507 34,000  Level FlightAware
Fri 12:28:20 AM 37.5244 -85.7185 225° Southwest 441 507 34,000  Level FlightAware
Fri 12:28:51 AM 37.4790 -85.7740 224° Southwest 440 506 34,000 97 Level FlightAware
Fri 12:29:22 AM 37.4347 -85.8294 225° Southwest 439 505 34,100  Climbing FlightAware
Fri 12:29:54 AM 37.3876 -85.8864 224° Southwest 439 505 34,000 -79 Descending FlightAware
Fri 12:30:38 AM 37.3235 -85.9648 224° Southwest 440 506 34,000  Level FlightAware
Fri 12:31:28 AM 37.2580 -86.0450 224° Southwest 439 505 34,000  Level FlightAware
Fri 12:31:33 AM 37.2440 -86.0606 222° Southwest 439 505 34,000  Level FlightAware
Fri 12:32:14 AM 37.1843 -86.1333 224° Southwest 439 505 34,000  Level FlightAware
Fri 12:33:00 AM 37.1163 -86.2167 224° Southwest 441 507 34,000  Level FlightAware
Fri 12:33:30 AM 37.0717 -86.2701 224° Southwest 441 507 34,000 98 Level FlightAware
Fri 12:34:01 AM 37.0265 -86.3252 224° Southwest 443 510 34,100  Climbing FlightAware
Fri 12:34:31 AM 36.9823 -86.3786 224° Southwest 443 510 34,000  Descending FlightAware
Fri 12:35:02 AM 36.9377 -86.4324 224° Southwest 442 509 34,100  Climbing FlightAware
Fri 12:35:14 AM 36.9206 -86.4565 228° Southwest 441 507 34,000 -111 Descending FlightAware
Fri 12:35:56 AM 36.8640 -86.5373 229° Southwest 438 504 34,000  Level FlightAware
Fri 12:36:27 AM 36.8243 -86.5973 230° Southwest 439 505 34,000  Level FlightAware
Fri 12:36:57 AM 36.7849 -86.6552 230° Southwest 439 505 34,000  Level FlightAware
Fri 12:37:31 AM 36.7409 -86.7216 230° Southwest 436 502 34,000  Level FlightAware
Fri 12:37:46 AM 36.7236 -86.7523 235° Southwest 433 498 34,000  Level FlightAware
Fri 12:38:28 AM 36.6850 -86.8380 241° Southwest 427 491 34,000  Level FlightAware
Fri 12:39:08 AM 36.6480 -86.9290 243° Southwest 427 491 34,000  Level FlightAware
Fri 12:39:53 AM 36.6100 -87.0260 244° Southwest 427 491 34,000  Level FlightAware
Fri 12:40:33 AM 36.5740 -87.1120 242° Southwest 428 493 34,000  Level FlightAware
Fri 12:41:18 AM 36.5330 -87.2150 244° Southwest 430 495 34,000  Level FlightAware
Fri 12:41:58 AM 36.4990 -87.3020 244° Southwest 430 495 34,000  Level FlightAware
Fri 12:42:38 AM 36.4630 -87.3900 243° Southwest 431 496 34,000 71 Level FlightAware
Fri 12:43:23 AM 36.4220 -87.4900 243° Southwest 432 497 34,100  Climbing FlightAware
Fri 12:44:03 AM 36.3860 -87.5780 243° Southwest 435 501 34,000  Descending FlightAware
Fri 12:44:48 AM 36.3370 -87.6770 238° Southwest 438 504 34,100 71 Climbing FlightAware
Fri 12:45:28 AM 36.2950 -87.7630 239° Southwest 437 503 34,100  Level FlightAware
Fri 12:46:08 AM 36.2530 -87.8490 239° Southwest 438 504 34,100 -71 Level FlightAware
Fri 12:46:53 AM 36.2100 -87.9390 239° Southwest 438 504 34,000 -60 Descending FlightAware
Fri 12:47:48 AM 36.1540 -88.0560 239° Southwest 439 505 34,000  Level FlightAware
Fri 12:48:28 AM 36.1180 -88.1290 239° Southwest 439 505 34,000  Level FlightAware
Fri 12:49:08 AM 36.0830 -88.2020 239° Southwest 439 505 34,000  Level FlightAware
Fri 12:49:53 AM 36.0230 -88.3230 239° Southwest 440 506 34,000  Level FlightAware
Fri 12:50:33 AM 35.9790 -88.4130 239° Southwest 439 505 34,000  Level FlightAware
Fri 12:51:13 AM 35.9420 -88.4850 238° Southwest 439 505 34,000  Level FlightAware
Fri 12:51:58 AM 35.8900 -88.5940 240° Southwest 439 505 34,000  Level FlightAware
Fri 12:52:38 AM 35.8530 -88.6660 238° Southwest 439 505 34,000  Level FlightAware
Fri 12:53:18 AM 35.8160 -88.7380 238° Southwest 439 505 34,000  Level FlightAware
Fri 12:53:58 AM 35.7800 -88.8100 238° Southwest 439 505 34,000  Level FlightAware
Fri 12:54:48 AM 35.7340 -88.9010 238° Southwest 439 505 34,000  Level FlightAware
Fri 12:55:28 AM 35.6970 -88.9730 238° Southwest 439 505 34,000  Level FlightAware
Fri 12:56:08 AM 35.6610 -89.0450 238° Southwest 439 505 34,000  Level FlightAware
Fri 12:56:48 AM 35.6240 -89.1170 238° Southwest 439 505 34,000  Level FlightAware
Fri 12:57:28 AM 35.5880 -89.1890 238° Southwest 439 505 34,000  Level FlightAware
Fri 12:58:18 AM 35.5420 -89.2790 238° Southwest 439 505 34,000  Level FlightAware
Fri 12:58:58 AM 35.5050 -89.3510 238° Southwest 439 505 34,000  Level FlightAware
Fri 12:59:38 AM 35.4690 -89.4230 238° Southwest 439 505 34,000  Level FlightAware
Fri 01:00:28 AM 35.4230 -89.5130 238° Southwest 439 505 34,000  Level FlightAware
Fri 01:01:08 AM 35.3860 -89.5840 237° Southwest 439 505 34,000 -18,789 Level FlightAware
Fri 01:01:44 AM 35.2619 -89.6731 237° Southwest 344 396 10,200 -15,875 Descending Memphis Center
Fri 01:02:44 AM 35.2081 -89.7419 226° Southwest 305 351 8,600 -1,750 Descending Memphis Center
Fri 01:03:44 AM 35.1522 -89.8136 226° Southwest 292 336 6,700 -1,300 Descending Memphis Center
Fri 01:04:44 AM 35.0919 -89.8672 216° Southwest 281 323 6,000 -950 Descending Memphis Center
Fri 01:05:44 AM 35.0253 -89.8678 180° South 245 282 4,800 -1,600 Descending Memphis Center
Fri 01:06:44 AM 34.9583 -89.8656 178° South 234 269 2,800 -1,377 Descending Memphis Center
Fri 01:07:46 AM 34.9000 -89.8833 194° South 230 265 2,000 -390 Descending KMEM
Fri 01:08:47 AM 34.8833 -89.9333 248° West 186 214 2,000  Level KMEM
Fri 01:09:43 AM 34.9167 -89.9667 321° Northwest 161 185 2,000 -202 Level KMEM
Fri 01:10:46 AM 34.9667 -89.9667 360° North 158 182 1,600 -537 Descending KMEM
Fri 01:11:46 AM 35.0000 -89.9667 360° North 107 123 900 -700 Descending KMEM
Fri 01:13:00 AM 35.0333 -89.9667 345° North  Level FlightAware
Fri 01:20:00 AM 35.0424 -89.9767 345° North  Level Estimated
Fri 01:21:00 AM 35.0424 -89.9767 345° North  Level Estimated
Fri 01:22:00 AM 35.0424 -89.9767 345° North  Level Estimated
Fri 01:23:00 AM 35.0424 -89.9767 345° North  Level Estimated
Fri 01:24:00 AM 35.0424 -89.9767 345° North  Level Estimated
Fri 01:25:00 AM 35.0424 -89.9767 345° North  Level Estimated
Fri 01:26:00 AM 35.0424 -89.9767 345° North  Level Estimated
Fri 01:27:00 AM 35.0424 -89.9767 345° North  Level Estimated
Fri 01:28:00 AM 35.0424 -89.9767 345° North  Level Estimated
Fri 01:29:00 AM 35.0424 -89.9767 345° North  Level Estimated
Fri 01:30:00 AM 35.0424 -89.9767 345° North  Level Estimated

Login

Don't have an account? Register now (free) for customized features, flight alerts, and more!